Time;durP1;ratioP1;P1;durP2;ratioP2;P2;SDS_P1;SDS_P2;PMS_P1;PMS_P2;Temp;Humidity;BMP_temperature;BMP_pressure;BME280_temperature;BME280_humidity;BME280_pressure;Samples;Min_cycle;Max_cycle;Signal;HPM_P1;HPM_P2
2022/10/29 00:00:21;;;;;;;;;;;;;;;17.31;56.26;102044.50;4959508;28;1902;-55
2022/10/29 00:02:46;;;;;;;;;;;;;;;17.00;56.38;102038.44;4959270;28;1169;-55
2022/10/29 00:05:11;;;;;;;;;;;;;;;16.45;57.45;102049.91;4958861;28;896;-55
2022/10/29 00:07:37;;;;;;;;;;;;;;;16.23;57.13;102039.59;4959044;28;1133;-55
2022/10/29 00:10:02;;;;;;;;;;;;;;;16.06;57.14;102047.69;4959410;28;1130;-55
2022/10/29 00:12:28;;;;;;;;;;;;;;;15.95;56.69;102032.91;4959004;28;1220;-55
2022/10/29 00:14:53;;;;;;;;;;;;;;;16.19;57.34;102041.13;4959106;28;1212;-53
2022/10/29 00:17:19;;;;;;;;;;;;;;;17.53;55.70;102041.88;4958982;28;931;-55
2022/10/29 00:19:44;;;;;;;;;;;;;;;16.85;57.00;102035.38;4958342;28;1963;-56
2022/10/29 00:22:10;;;;;;;;;;;;;;;16.44;57.19;102040.84;4958910;28;1161;-55
2022/10/29 00:24:35;;;;;;;;;;;;;;;16.14;57.00;102030.84;4959071;28;1138;-55
2022/10/29 00:27:01;;;;;;;;;;;;;;;16.00;57.03;102030.25;4957710;28;1134;-55
2022/10/29 00:29:26;;;;;;;;;;;;;;;15.97;56.73;102022.53;4989518;28;1212;-55
2022/10/29 00:31:51;;;;;;;;;;;;;;;17.32;56.08;102023.34;4958415;28;1267;-55
2022/10/29 00:34:17;;;;;;;;;;;;;;;16.91;56.54;102029.78;4958636;28;1181;-55
2022/10/29 00:36:42;;;;;;;;;;;;;;;16.38;57.14;102025.34;4958728;28;1318;-55
2022/10/29 00:39:10;;;;;;;;;;;;;;;16.20;57.05;102023.56;4958854;28;1129;-56
2022/10/29 00:41:36;;;;;;;;;;;;;;;16.04;56.80;102020.47;4989013;28;1906;-55
2022/10/29 00:44:13;;;;;;;;;;;;;;;15.93;56.72;102023.25;4958251;28;1161;-55
2022/10/29 00:46:43;;;;;;;;;;;;;;;17.29;56.26;102016.41;4958754;28;1177;-56
2022/10/29 00:49:08;;;;;;;;;;;;;;;17.21;55.96;102012.16;4975928;28;1168;-55
2022/10/29 00:51:34;;;;;;;;;;;;;;;16.55;57.24;102014.44;4957777;28;1213;-55
2022/10/29 00:54:01;;;;;;;;;;;;;;;16.30;56.86;102018.31;4958522;28;1213;-55
2022/10/29 00:56:26;;;;;;;;;;;;;;;16.15;56.93;102024.31;4980596;28;1148;-54
2022/10/29 00:58:52;;;;;;;;;;;;;;;16.00;56.80;102010.25;4950192;29;1233;-54
2022/10/29 01:01:17;;;;;;;;;;;;;;;15.87;56.81;102005.84;4958125;28;1906;-55
2022/10/29 01:03:42;;;;;;;;;;;;;;;16.02;56.95;102006.19;4958633;28;1145;-55
2022/10/29 01:06:08;;;;;;;;;;;;;;;17.39;55.89;101997.34;4958444;28;1133;-55
2022/10/29 01:08:33;;;;;;;;;;;;;;;16.86;56.73;101998.59;4958214;28;1145;-55
2022/10/29 01:11:13;;;;;;;;;;;;;;;16.41;57.13;102003.75;4958031;28;1216;-55
2022/10/29 01:13:57;;;;;;;;;;;;;;;16.21;56.98;101995.06;4960481;28;1177;-55
2022/10/29 01:16:22;;;;;;;;;;;;;;;16.42;57.80;101999.94;4957711;28;1241;-55
2022/10/29 01:19:00;;;;;;;;;;;;;;;17.48;55.60;102005.19;4958519;29;1144;-55
2022/10/29 01:21:28;;;;;;;;;;;;;;;16.54;57.15;101991.63;4975085;28;1905;-56
2022/10/29 01:23:54;;;;;;;;;;;;;;;16.30;57.24;101990.03;4957945;28;1171;-56
2022/10/29 01:26:38;;;;;;;;;;;;;;;16.12;56.75;101986.38;4958178;28;1161;-55
2022/10/29 01:29:06;;;;;;;;;;;;;;;16.02;56.56;101988.88;4949580;29;907;-55
2022/10/29 01:31:58;;;;;;;;;;;;;;;15.88;56.54;101985.56;4958141;28;1229;-55
2022/10/29 01:34:27;;;;;;;;;;;;;;;17.27;56.28;101985.59;4955895;28;1223;-56
2022/10/29 01:36:53;;;;;;;;;;;;;;;16.90;56.52;101980.53;4957703;28;1181;-56
2022/10/29 01:39:18;;;;;;;;;;;;;;;16.34;57.31;101980.22;4984234;28;1902;-55
2022/10/29 01:41:44;;;;;;;;;;;;;;;16.17;57.09;101982.91;4975117;28;963;-55
2022/10/29 01:44:12;;;;;;;;;;;;;;;16.05;56.73;101974.69;4961659;28;1165;-55
2022/10/29 01:46:58;;;;;;;;;;;;;;;16.26;57.38;101978.72;4961636;28;1244;-55
2022/10/29 01:49:28;;;;;;;;;;;;;;;17.17;56.12;101972.50;4949236;28;1123;-55
2022/10/29 01:51:53;;;;;;;;;;;;;;;16.48;57.42;101964.31;4961676;28;1247;-54
2022/10/29 01:54:19;;;;;;;;;;;;;;;16.18;57.44;101970.84;4960126;29;1026;-55
2022/10/29 01:56:52;;;;;;;;;;;;;;;16.04;56.89;101964.78;4980923;28;1251;-55
2022/10/29 01:59:17;;;;;;;;;;;;;;;16.13;57.27;101965.25;4958131;28;990;-55
2022/10/29 02:01:46;;;;;;;;;;;;;;;17.50;55.45;101964.53;4961890;28;1066;-54
2022/10/29 02:04:30;;;;;;;;;;;;;;;16.62;56.83;101960.22;4961110;28;1141;-55
2022/10/29 02:07:01;;;;;;;;;;;;;;;16.24;57.45;101959.75;4949511;29;1146;-54
2022/10/29 02:09:29;;;;;;;;;;;;;;;16.08;56.79;101957.75;4978791;28;1188;-55
2022/10/29 02:12:01;;;;;;;;;;;;;;;15.95;57.08;101958.84;4961550;28;1184;-54
2022/10/29 02:14:29;;;;;;;;;;;;;;;17.41;55.97;101967.69;4961258;28;1208;-56
2022/10/29 02:16:54;;;;;;;;;;;;;;;16.79;56.85;101954.78;4961318;28;1271;-54
2022/10/29 02:19:20;;;;;;;;;;;;;;;16.31;57.23;101948.59;4961330;28;1914;-56
2022/10/29 02:21:45;;;;;;;;;;;;;;;16.10;57.25;101952.00;4961066;28;1169;-55
2022/10/29 02:24:11;;;;;;;;;;;;;;;15.98;56.94;101955.63;4960623;28;1149;-56
2022/10/29 02:26:36;;;;;;;;;;;;;;;15.89;56.72;101957.03;4961109;28;1177;-55
2022/10/29 02:29:01;;;;;;;;;;;;;;;16.79;56.96;101949.28;4960899;28;1149;-56
2022/10/29 02:31:27;;;;;;;;;;;;;;;17.57;55.34;101945.91;4960662;28;1148;-55
2022/10/29 02:33:53;;;;;;;;;;;;;;;16.65;56.86;101953.38;4961092;28;1228;-55
2022/10/29 02:36:18;;;;;;;;;;;;;;;16.31;57.13;101943.13;4959848;29;1138;-54
2022/10/29 02:38:44;;;;;;;;;;;;;;;16.12;56.65;101947.09;4961414;28;1200;-53
2022/10/29 02:41:09;;;;;;;;;;;;;;;16.12;57.27;101949.84;4960667;28;1906;-54
2022/10/29 02:43:34;;;;;;;;;;;;;;;17.57;55.41;101949.53;4961324;28;1279;-52
2022/10/29 02:46:13;;;;;;;;;;;;;;;16.69;57.03;101943.56;4960676;28;1212;-54
2022/10/29 02:48:39;;;;;;;;;;;;;;;16.29;57.06;101939.78;4960761;28;1173;-54
2022/10/29 02:51:04;;;;;;;;;;;;;;;16.09;57.06;101929.25;4959798;28;1228;-54
2022/10/29 02:53:30;;;;;;;;;;;;;;;16.01;56.45;101941.41;4960351;28;1247;-51
2022/10/29 02:55:55;;;;;;;;;;;;;;;15.98;57.06;101947.38;4960185;28;1248;-54
2022/10/29 02:58:21;;;;;;;;;;;;;;;17.39;56.00;101936.00;4959402;28;1129;-54
2022/10/29 03:00:49;;;;;;;;;;;;;;;16.74;56.76;101933.53;4960789;28;1907;-54
2022/10/29 03:03:15;;;;;;;;;;;;;;;16.32;56.96;101933.81;4960213;28;1177;-55
2022/10/29 03:05:40;;;;;;;;;;;;;;;16.06;56.96;101930.56;4989831;28;1057;-54
2022/10/29 03:08:06;;;;;;;;;;;;;;;16.08;57.38;101933.88;4960486;28;1259;-54
2022/10/29 03:10:31;;;;;;;;;;;;;;;17.56;55.66;101936.03;4959987;28;1176;-54
2022/10/29 03:13:00;;;;;;;;;;;;;;;17.00;56.14;101927.69;4960276;28;1169;-55
2022/10/29 03:15:25;;;;;;;;;;;;;;;16.40;57.03;101936.19;4959882;28;1102;-54
2022/10/29 03:17:51;;;;;;;;;;;;;;;16.23;56.71;101929.81;4959717;28;1213;-53
2022/10/29 03:20:16;;;;;;;;;;;;;;;16.08;56.85;101933.88;4955399;28;1982;-54
2022/10/29 03:22:41;;;;;;;;;;;;;;;16.51;57.28;101922.63;4956555;28;2143;-54
2022/10/29 03:25:07;;;;;;;;;;;;;;;17.70;54.94;101928.25;4959099;28;2181;-54
2022/10/29 03:27:38;;;;;;;;;;;;;;;16.77;56.49;101924.81;4959617;28;1928;-54
2022/10/29 03:30:04;;;;;;;;;;;;;;;16.39;56.98;101923.53;4959166;28;2157;-54
2022/10/29 03:32:30;;;;;;;;;;;;;;;16.17;56.69;101925.28;4959283;28;1793;-54
2022/10/29 03:34:55;;;;;;;;;;;;;;;16.65;57.24;101915.78;4958910;28;2098;-54
2022/10/29 03:37:20;;;;;;;;;;;;;;;17.41;55.62;101915.44;4957555;29;2048;-55
2022/10/29 03:39:46;;;;;;;;;;;;;;;16.64;56.68;101922.34;4959344;28;1917;-55
2022/10/29 03:42:11;;;;;;;;;;;;;;;16.35;56.99;101922.34;4959179;28;1157;-52
2022/10/29 03:44:37;;;;;;;;;;;;;;;16.15;56.59;101922.78;4958195;28;2347;-51
2022/10/29 03:47:02;;;;;;;;;;;;;;;15.99;56.55;101918.03;4958704;28;2177;-52
2022/10/29 03:49:28;;;;;;;;;;;;;;;16.06;57.07;101922.31;4959206;28;2057;-54
2022/10/29 03:51:53;;;;;;;;;;;;;;;17.46;55.69;101920.22;4945687;28;1907;-50
2022/10/29 03:54:18;;;;;;;;;;;;;;;16.59;57.32;101917.59;4957166;28;2058;-55
2022/10/29 03:56:44;;;;;;;;;;;;;;;16.22;57.09;101919.91;4959342;28;2033;-56
2022/10/29 03:59:09;;;;;;;;;;;;;;;16.06;57.08;101919.56;4958619;28;2192;-57
2022/10/29 04:01:35;;;;;;;;;;;;;;;15.91;56.92;101924.75;4958106;28;1910;-48
2022/10/29 04:04:00;;;;;;;;;;;;;;;15.80;56.55;101920.94;4957486;29;1158;-52
2022/10/29 04:06:26;;;;;;;;;;;;;;;16.79;57.22;101929.19;4958497;28;1137;-52
2022/10/29 04:08:51;;;;;;;;;;;;;;;17.40;55.71;101919.28;4958377;28;1050;-54
2022/10/29 04:11:16;;;;;;;;;;;;;;;16.53;57.30;101923.25;4945377;28;1114;-52
2022/10/29 04:13:42;;;;;;;;;;;;;;;16.20;56.97;101920.13;4957607;29;1133;-53
2022/10/29 04:16:07;;;;;;;;;;;;;;;15.99;56.86;101913.41;4958784;28;1086;-53
2022/10/29 04:18:33;;;;;;;;;;;;;;;15.95;57.07;101914.94;4952904;28;1090;-55
2022/10/29 04:21:00;;;;;;;;;;;;;;;17.40;55.96;101922.03;4958770;28;1995;-50
2022/10/29 04:23:25;;;;;;;;;;;;;;;16.86;56.62;101916.16;4958274;28;1184;-53
2022/10/29 04:25:57;;;;;;;;;;;;;;;16.40;57.18;101925.19;4958413;28;1082;-51
2022/10/29 04:28:23;;;;;;;;;;;;;;;16.17;56.75;101917.88;4958297;28;1224;-53
2022/10/29 04:30:48;;;;;;;;;;;;;;;15.98;56.74;101922.69;4958026;28;2245;-52
2022/10/29 04:33:14;;;;;;;;;;;;;;;15.88;56.48;101925.22;4958474;28;1279;-53
2022/10/29 04:35:39;;;;;;;;;;;;;;;17.13;56.19;101932.03;4958266;28;1086;-49
2022/10/29 04:38:08;;;;;;;;;;;;;;;17.19;55.94;101934.59;4957999;28;1620;-52
2022/10/29 04:40:33;;;;;;;;;;;;;;;16.54;56.94;101924.91;4958682;28;1910;-53
2022/10/29 04:42:59;;;;;;;;;;;;;;;16.26;56.62;101926.56;4957757;28;1204;-52
2022/10/29 04:45:25;;;;;;;;;;;;;;;16.19;56.78;101925.88;4958500;28;1176;-51
2022/10/29 04:47:57;;;;;;;;;;;;;;;17.62;55.04;101935.00;4957967;28;948;-52
2022/10/29 04:50:22;;;;;;;;;;;;;;;16.89;56.42;101932.19;4957036;28;1160;-54
2022/10/29 04:52:48;;;;;;;;;;;;;;;16.44;56.72;101931.03;4958313;28;1121;-54
2022/10/29 04:55:14;;;;;;;;;;;;;;;17.10;56.10;101936.94;4959217;28;1222;-55
2022/10/29 04:57:39;;;;;;;;;;;;;;;17.39;55.27;101936.88;4958420;28;1117;-55
2022/10/29 05:00:05;;;;;;;;;;;;;;;16.72;56.21;101943.13;4957775;28;2063;-54
2022/10/29 05:02:30;;;;;;;;;;;;;;;16.52;56.46;101936.16;4958272;28;1098;-53
2022/10/29 05:04:56;;;;;;;;;;;;;;;16.32;56.20;101943.97;4958360;28;1157;-53
2022/10/29 05:07:21;;;;;;;;;;;;;;;17.23;56.11;101945.94;4957958;28;864;-52
2022/10/29 05:09:46;;;;;;;;;;;;;;;17.26;55.64;101948.19;4958004;28;1113;-52
2022/10/29 05:12:12;;;;;;;;;;;;;;;16.68;56.55;101950.16;4958049;28;1105;-51
2022/10/29 05:14:37;;;;;;;;;;;;;;;16.49;56.41;101944.03;4958070;28;1173;-48
2022/10/29 05:17:03;;;;;;;;;;;;;;;16.29;56.18;101945.28;4958013;28;1197;-49
2022/10/29 05:19:28;;;;;;;;;;;;;;;16.34;56.46;101952.78;4957895;29;1969;-44
2022/10/29 05:21:53;;;;;;;;;;;;;;;17.75;54.71;101956.69;4957892;28;1174;-54
2022/10/29 05:24:19;;;;;;;;;;;;;;;16.90;56.35;101950.31;4958410;28;1509;-51
2022/10/29 05:26:44;;;;;;;;;;;;;;;16.52;56.48;101951.78;4957838;28;1102;-54
2022/10/29 05:29:10;;;;;;;;;;;;;;;16.31;56.26;101948.59;4957818;28;1943;-51
2022/10/29 05:31:35;;;;;;;;;;;;;;;16.18;56.26;101955.22;4956382;29;1477;-52
2022/10/29 05:34:00;;;;;;;;;;;;;;;17.21;55.85;101957.19;4958221;28;1110;-49
2022/10/29 05:36:26;;;;;;;;;;;;;;;18.46;54.40;101966.16;4957510;28;1109;-51
2022/10/29 05:38:51;;;;;;;;;;;;;;;17.21;54.86;101961.88;4957879;28;1106;-52
2022/10/29 05:41:17;;;;;;;;;;;;;;;18.38;54.55;101959.16;4957600;28;1981;-53
2022/10/29 05:43:42;;;;;;;;;;;;;;;16.54;58.71;101968.84;4955685;28;1224;-52
2022/10/29 05:46:08;;;;;;;;;;;;;;;16.86;59.93;101971.94;4957476;28;1075;-52
2022/10/29 05:48:33;;;;;;;;;;;;;;;18.93;54.31;101971.09;4957752;28;1157;-52
2022/10/29 05:50:58;;;;;;;;;;;;;;;14.87;62.38;101975.34;4957690;28;1130;-52
2022/10/29 05:53:24;;;;;;;;;;;;;;;17.69;57.95;101971.41;4957286;28;1169;-52
2022/10/29 05:55:49;;;;;;;;;;;;;;;18.30;54.99;101973.41;4959277;28;1420;-52
2022/10/29 05:58:15;;;;;;;;;;;;;;;17.38;53.93;101970.94;4957767;28;1098;-51
2022/10/29 06:00:41;;;;;;;;;;;;;;;18.54;55.05;101978.66;4957316;28;2496;-53
2022/10/29 06:03:11;;;;;;;;;;;;;;;17.91;54.36;101979.75;4947814;28;1057;-53
2022/10/29 06:05:36;;;;;;;;;;;;;;;17.70;53.90;101986.84;4985897;28;1116;-50
2022/10/29 06:08:01;;;;;;;;;;;;;;;18.59;54.12;101987.81;4957675;28;975;-55
2022/10/29 06:10:27;;;;;;;;;;;;;;;15.29;64.66;101990.94;4957879;28;1238;-52
2022/10/29 06:12:53;;;;;;;;;;;;;;;18.71;55.12;101987.66;4956628;29;1189;-53
2022/10/29 06:15:18;;;;;;;;;;;;;;;16.33;59.17;101987.66;4957224;28;1160;-52
2022/10/29 06:17:44;;;;;;;;;;;;;;;16.87;60.52;101989.25;4957457;28;1181;-53
2022/10/29 06:20:09;;;;;;;;;;;;;;;18.85;54.61;101990.00;4957083;28;1989;-54
2022/10/29 06:22:35;;;;;;;;;;;;;;;15.00;63.97;101991.59;4956987;28;1330;-53
2022/10/29 06:25:00;;;;;;;;;;;;;;;18.48;56.42;101991.50;4957795;28;1208;-50
2022/10/29 06:27:26;;;;;;;;;;;;;;;16.98;58.20;101988.38;4960778;28;1289;-53
2022/10/29 06:29:51;;;;;;;;;;;;;;;16.78;61.57;101997.06;4960167;28;1857;-52
2022/10/29 06:32:17;;;;;;;;;;;;;;;19.25;54.23;101992.34;4960002;28;999;-51
2022/10/29 06:34:42;;;;;;;;;;;;;;;15.11;61.81;101997.34;4960635;28;1319;-54
2022/10/29 06:37:08;;;;;;;;;;;;;;;17.55;59.08;101989.38;4959650;28;1216;-54
2022/10/29 06:39:33;;;;;;;;;;;;;;;18.17;55.59;101993.03;4960045;28;1906;-51
2022/10/29 06:41:58;;;;;;;;;;;;;;;17.44;53.56;102000.19;4960085;28;1269;-53
2022/10/29 06:44:27;;;;;;;;;;;;;;;18.62;55.25;102002.97;4959894;28;1018;-54
2022/10/29 06:46:52;;;;;;;;;;;;;;;17.82;54.14;102002.41;4960085;28;1185;-52
2022/10/29 06:49:19;;;;;;;;;;;;;;;18.38;54.80;102002.41;4960117;28;1209;-54
2022/10/29 06:51:44;;;;;;;;;;;;;;;16.67;59.27;102001.50;4959751;28;1193;-52
2022/10/29 06:54:09;;;;;;;;;;;;;;;17.01;60.31;102001.66;4960353;28;1154;-53
2022/10/29 06:56:35;;;;;;;;;;;;;;;19.34;53.57;102000.97;4959953;28;940;-54
2022/10/29 06:59:00;;;;;;;;;;;;;;;15.09;63.09;102013.19;4958819;29;1952;-55
2022/10/29 07:01:27;;;;;;;;;;;;;;;18.42;56.39;102000.81;4960032;28;1967;-53
2022/10/29 07:03:53;;;;;;;;;;;;;;;17.61;57.11;102013.94;4960552;28;1181;-54
2022/10/29 07:06:18;;;;;;;;;;;;;;;15.98;59.11;102005.00;4959512;28;1145;-56
2022/10/29 07:08:44;;;;;;;;;;;;;;;18.72;55.72;102005.84;4959691;28;1208;-54
2022/10/29 07:11:09;;;;;;;;;;;;;;;15.51;61.15;102004.94;4960198;28;1157;-54
2022/10/29 07:13:35;;;;;;;;;;;;;;;17.57;58.92;102015.53;4959781;28;1165;-54
2022/10/29 07:16:00;;;;;;;;;;;;;;;18.71;54.48;102012.44;4959909;28;1181;-53
2022/10/29 07:18:25;;;;;;;;;;;;;;;15.43;63.47;102014.34;4959931;28;1106;-51
2022/10/29 07:20:51;;;;;;;;;;;;;;;18.75;55.29;102013.59;4959745;28;1906;-52
2022/10/29 07:23:16;;;;;;;;;;;;;;;15.99;60.38;102005.81;4959468;28;1133;-53
2022/10/29 07:25:42;;;;;;;;;;;;;;;16.78;59.88;102008.03;4959708;28;1220;-51
2022/10/29 07:28:10;;;;;;;;;;;;;;;19.09;54.45;102013.41;4958997;28;1208;-54
2022/10/29 07:30:35;;;;;;;;;;;;;;;14.67;62.87;102022.19;4959143;28;2249;-53
2022/10/29 07:33:00;;;;;;;;;;;;;;;17.95;57.63;102015.88;4959493;28;1176;-53
2022/10/29 07:35:26;;;;;;;;;;;;;;;17.04;57.83;102016.78;4959070;28;1086;-53
2022/10/29 07:37:51;;;;;;;;;;;;;;;16.14;62.03;102013.56;4959557;28;1078;-52
2022/10/29 07:40:17;;;;;;;;;;;;;;;18.91;54.75;102008.28;4959093;28;1910;-51
2022/10/29 07:42:42;;;;;;;;;;;;;;;15.02;62.20;102003.13;4958869;28;1165;-54
2022/10/29 07:45:08;;;;;;;;;;;;;;;17.48;58.92;102005.19;4958355;28;1034;-54
2022/10/29 07:47:33;;;;;;;;;;;;;;;18.07;55.51;101997.31;4959665;28;1334;-55
2022/10/29 07:49:59;;;;;;;;;;;;;;;15.37;64.31;101998.84;4960903;28;1168;-54
2022/10/29 07:52:24;;;;;;;;;;;;;;;18.67;55.18;101992.00;4958873;28;1201;-54
2022/10/29 07:54:50;;;;;;;;;;;;;;;15.61;60.83;101996.13;4958843;28;1094;-53
2022/10/29 07:57:15;;;;;;;;;;;;;;;16.47;59.07;101992.88;4958515;28;1188;-53
2022/10/29 07:59:41;;;;;;;;;;;;;;;18.33;55.50;101999.56;4959088;28;1883;-51
2022/10/29 08:02:08;;;;;;;;;;;;;;;17.53;54.78;101997.00;4959029;28;1200;-52
2022/10/29 08:04:33;;;;;;;;;;;;;;;17.22;52.72;101994.59;4958843;28;1205;-51
2022/10/29 08:06:59;;;;;;;;;;;;;;;17.10;51.62;101994.66;4957874;28;1220;-47
2022/10/29 08:09:24;;;;;;;;;;;;;;;17.07;50.69;101994.34;4958482;28;1170;-53
2022/10/29 08:11:49;;;;;;;;;;;;;;;16.90;49.90;102002.50;4948492;28;1141;-48
2022/10/29 08:14:15;;;;;;;;;;;;;;;16.81;49.19;101993.81;4986355;28;1089;-50
2022/10/29 08:16:40;;;;;;;;;;;;;;;16.72;49.07;101992.56;4958791;28;1292;-49
2022/10/29 08:19:06;;;;;;;;;;;;;;;17.48;51.29;101999.69;4957992;28;1225;-52
2022/10/29 08:21:32;;;;;;;;;;;;;;;17.04;51.30;101990.16;4958806;28;1918;-51
2022/10/29 08:23:58;;;;;;;;;;;;;;;16.84;50.23;101990.56;4958740;28;1130;-49
2022/10/29 08:26:23;;;;;;;;;;;;;;;17.79;52.29;101996.34;4959104;28;1157;-52
2022/10/29 08:28:49;;;;;;;;;;;;;;;17.15;51.48;101985.66;4958460;28;1845;-53
2022/10/29 08:31:14;;;;;;;;;;;;;;;16.94;50.08;101978.97;4958521;28;1094;-52
2022/10/29 08:33:40;;;;;;;;;;;;;;;17.61;51.75;101974.59;4958353;28;1117;-51
2022/10/29 08:36:05;;;;;;;;;;;;;;;17.14;50.96;101978.50;4958645;28;1094;-53
2022/10/29 08:38:31;;;;;;;;;;;;;;;16.99;49.93;101970.81;4958112;28;1188;-52
2022/10/29 08:41:05;;;;;;;;;;;;;;;16.79;49.17;101975.91;4958077;28;1971;-51
2022/10/29 08:43:49;;;;;;;;;;;;;;;17.24;50.03;101969.63;4958381;28;1121;-51
2022/10/29 08:46:34;;;;;;;;;;;;;;;17.18;50.88;101967.84;4957846;28;1114;-51
2022/10/29 08:49:01;;;;;;;;;;;;;;;16.90;49.60;101967.66;4955797;28;1143;-53
2022/10/29 08:51:35;;;;;;;;;;;;;;;16.85;49.34;101966.69;4956660;29;1161;-52
2022/10/29 08:54:00;;;;;;;;;;;;;;;17.33;50.39;101959.84;4958472;28;1157;-52
2022/10/29 08:56:27;;;;;;;;;;;;;;;16.90;49.85;101961.31;4958038;28;1126;-50
2022/10/29 08:58:52;;;;;;;;;;;;;;;16.95;48.80;101960.59;4956769;29;1844;-53
2022/10/29 09:01:19;;;;;;;;;;;;;;;16.83;48.09;101946.84;4958218;28;1917;-51
2022/10/29 09:03:44;;;;;;;;;;;;;;;16.72;47.81;101943.13;4958344;28;1058;-52
2022/10/29 09:06:13;;;;;;;;;;;;;;;16.60;47.63;101951.38;4958232;28;1071;-50
2022/10/29 09:08:43;;;;;;;;;;;;;;;17.40;49.00;101938.53;4956505;28;1174;-54
2022/10/29 09:11:24;;;;;;;;;;;;;;;16.89;49.09;101930.25;4958330;28;1090;-52
2022/10/29 09:14:19;;;;;;;;;;;;;;;16.73;48.38;101936.50;4958039;28;1241;-53
2022/10/29 09:16:44;;;;;;;;;;;;;;;17.53;49.79;101931.00;4947578;29;1386;-51
2022/10/29 09:19:10;;;;;;;;;;;;;;;16.93;49.79;101927.88;4957423;28;1237;-53
2022/10/29 09:21:50;;;;;;;;;;;;;;;17.34;49.85;101923.03;4956803;28;1910;-53
2022/10/29 09:24:16;;;;;;;;;;;;;;;17.24;49.84;101920.13;4957604;28;1288;-51
2022/10/29 09:26:44;;;;;;;;;;;;;;;16.97;49.09;101929.03;4957447;28;1311;-50
2022/10/29 09:29:40;;;;;;;;;;;;;;;16.91;48.10;101922.63;4957432;28;1924;-53
2022/10/29 09:32:09;;;;;;;;;;;;;;;17.41;49.74;101918.19;4952360;29;1284;-49
2022/10/29 09:34:42;;;;;;;;;;;;;;;17.72;50.25;101918.63;4957761;28;1066;-51
2022/10/29 09:37:15;;;;;;;;;;;;;;;18.71;50.67;101913.25;4942801;29;1180;-53
2022/10/29 09:39:41;;;;;;;;;;;;;;;15.19;58.54;101914.81;4957229;28;1898;-51
2022/10/29 09:42:10;;;;;;;;;;;;;;;16.46;51.35;101903.34;4957103;28;1248;-49
2022/10/29 09:44:43;;;;;;;;;;;;;;;16.59;49.72;101905.78;4955422;29;1232;-49
2022/10/29 09:47:32;;;;;;;;;;;;;;;17.21;50.60;101912.38;4956897;28;1249;-49
2022/10/29 09:50:15;;;;;;;;;;;;;;;17.44;51.81;101901.19;4951531;28;1304;-51
2022/10/29 09:52:42;;;;;;;;;;;;;;;17.10;50.20;101903.97;4956328;28;1271;-49
2022/10/29 09:55:10;;;;;;;;;;;;;;;18.24;51.13;101905.56;4957324;28;1241;-50
2022/10/29 09:57:35;;;;;;;;;;;;;;;17.47;51.08;101896.28;4956555;28;1345;-52
2022/10/29 10:00:02;;;;;;;;;;;;;;;17.13;49.86;101882.56;4959769;28;1991;-53
2022/10/29 10:02:57;;;;;;;;;;;;;;;17.08;49.02;101880.56;4960800;28;1039;-52
2022/10/29 10:05:25;;;;;;;;;;;;;;;17.50;49.86;101882.88;4956285;28;1327;-53
2022/10/29 10:08:02;;;;;;;;;;;;;;;17.31;49.92;101874.06;4960609;28;1280;-52
2022/10/29 10:10:28;;;;;;;;;;;;;;;17.02;49.34;101865.91;4960565;28;1271;-53
2022/10/29 10:12:53;;;;;;;;;;;;;;;16.97;48.13;101875.97;4960598;28;1134;-53
2022/10/29 10:15:21;;;;;;;;;;;;;;;16.96;48.55;101872.41;4959093;29;1324;-52
2022/10/29 10:17:57;;;;;;;;;;;;;;;17.29;49.63;101867.97;4960385;28;1295;-52
2022/10/29 10:20:25;;;;;;;;;;;;;;;16.91;49.07;101861.31;4956804;28;1903;-52
2022/10/29 10:22:51;;;;;;;;;;;;;;;16.91;48.39;101858.56;4951635;29;1168;-54
2022/10/29 10:25:35;;;;;;;;;;;;;;;16.83;47.56;101851.56;4960769;28;1137;-53
2022/10/29 10:28:04;;;;;;;;;;;;;;;17.66;48.59;101842.66;4960573;29;1129;-54
2022/10/29 10:30:29;;;;;;;;;;;;;;;17.00;49.27;101843.34;4959799;29;1904;-54
2022/10/29 10:33:01;;;;;;;;;;;;;;;17.51;49.21;101839.69;4960356;28;1089;-53
2022/10/29 10:35:29;;;;;;;;;;;;;;;17.67;50.07;101836.06;4959660;29;1085;-52
2022/10/29 10:37:55;;;;;;;;;;;;;;;17.21;49.71;101833.50;4959642;29;1097;-51
2022/10/29 10:40:21;;;;;;;;;;;;;;;17.02;49.01;101832.94;4960281;28;1939;-52
2022/10/29 10:42:46;;;;;;;;;;;;;;;17.28;49.18;101825.91;4960502;28;1106;-55
2022/10/29 10:45:13;;;;;;;;;;;;;;;17.33;49.55;101822.38;4959498;28;1264;-56
2022/10/29 10:47:40;;;;;;;;;;;;;;;17.10;48.89;101824.25;4943022;29;1091;-55
2022/10/29 10:50:15;;;;;;;;;;;;;;;16.97;48.10;101821.88;4959594;29;1200;-53
2022/10/29 10:52:41;;;;;;;;;;;;;;;16.87;47.68;101816.16;4959141;28;1129;-54
2022/10/29 10:55:07;;;;;;;;;;;;;;;17.55;48.58;101808.66;4959388;28;1157;-52
2022/10/29 10:57:35;;;;;;;;;;;;;;;17.06;48.69;101808.53;4958339;28;894;-54
2022/10/29 11:00:07;;;;;;;;;;;;;;;16.87;48.38;101807.94;4960049;28;1898;-54
2022/10/29 11:02:34;;;;;;;;;;;;;;;17.82;48.97;101810.66;4960151;28;1090;-53
2022/10/29 11:05:00;;;;;;;;;;;;;;;17.19;49.53;101804.59;4959210;29;1087;-52
2022/10/29 11:07:26;;;;;;;;;;;;;;;16.92;49.05;101797.06;4959198;29;1071;-53
2022/10/29 11:09:51;;;;;;;;;;;;;;;17.81;49.16;101795.25;4959627;28;1197;-52
2022/10/29 11:12:26;;;;;;;;;;;;;;;17.20;49.33;101790.59;4959812;28;1137;-54
2022/10/29 11:14:58;;;;;;;;;;;;;;;17.02;48.44;101788.13;4959978;28;1086;-55
2022/10/29 11:17:49;;;;;;;;;;;;;;;17.89;49.06;101785.69;4955251;28;1145;-54
2022/10/29 11:20:35;;;;;;;;;;;;;;;17.29;49.54;101780.00;4954344;28;1906;-52
2022/10/29 11:23:00;;;;;;;;;;;;;;;17.10;48.72;101773.97;4959061;28;1504;-53
2022/10/29 11:25:28;;;;;;;;;;;;;;;16.98;48.02;101782.31;4959770;28;1101;-52
2022/10/29 11:28:00;;;;;;;;;;;;;;;16.90;47.59;101775.34;4980642;28;1203;-54
2022/10/29 11:30:25;;;;;;;;;;;;;;;17.43;49.14;101781.31;4956545;29;1784;-56
2022/10/29 11:32:58;;;;;;;;;;;;;;;17.09;48.82;101773.13;4958358;29;1082;-55
2022/10/29 11:35:27;;;;;;;;;;;;;;;16.85;48.21;101764.22;4946502;29;1106;-55
2022/10/29 11:37:57;;;;;;;;;;;;;;;17.97;48.73;101768.75;4959711;28;1156;-56
2022/10/29 11:40:43;;;;;;;;;;;;;;;17.27;49.27;101765.69;4959494;28;1968;-54
2022/10/29 11:43:12;;;;;;;;;;;;;;;17.06;48.41;101759.91;4945013;29;1161;-55
2022/10/29 11:45:56;;;;;;;;;;;;;;;17.82;49.16;101755.63;4959271;28;920;-55
2022/10/29 11:48:27;;;;;;;;;;;;;;;17.18;49.36;101754.31;4957949;28;1121;-54
2022/10/29 11:51:05;;;;;;;;;;;;;;;17.05;48.55;101751.91;4976034;28;2287;-52
2022/10/29 11:53:36;;;;;;;;;;;;;;;16.92;47.89;101755.84;4954765;28;2097;-52
2022/10/29 11:56:21;;;;;;;;;;;;;;;17.75;48.65;101744.00;4958172;28;1972;-53
2022/10/29 11:58:56;;;;;;;;;;;;;;;17.34;49.39;101747.09;4957692;28;2274;-53
2022/10/29 12:01:31;;;;;;;;;;;;;;;18.92;48.82;101743.44;4980096;28;1906;-53
2022/10/29 12:03:59;;;;;;;;;;;;;;;15.25;58.65;101745.88;4956662;28;1134;-52
2022/10/29 12:06:32;;;;;;;;;;;;;;;16.73;51.61;101741.50;4958900;28;1065;-53
2022/10/29 12:08:57;;;;;;;;;;;;;;;16.82;49.42;101739.19;4957663;29;1810;-53
2022/10/29 12:11:22;;;;;;;;;;;;;;;17.70;50.90;101728.28;4958587;28;1125;-55
2022/10/29 12:13:48;;;;;;;;;;;;;;;17.25;50.93;101730.22;4958667;28;1094;-53
2022/10/29 12:16:23;;;;;;;;;;;;;;;16.99;49.83;101720.78;4958969;28;1121;-51
2022/10/29 12:18:49;;;;;;;;;;;;;;;16.93;48.56;101725.38;4958252;28;1621;-52
2022/10/29 12:21:43;;;;;;;;;;;;;;;16.89;48.89;101718.72;4945147;28;2008;-55
2022/10/29 12:24:16;;;;;;;;;;;;;;;17.17;49.84;101716.09;4939726;29;1099;-52
2022/10/29 12:26:43;;;;;;;;;;;;;;;16.93;48.86;101708.88;4956279;28;1706;-54
2022/10/29 12:29:18;;;;;;;;;;;;;;;16.91;48.17;101707.47;4956566;28;1975;-53
2022/10/29 12:32:13;;;;;;;;;;;;;;;17.70;49.33;101711.78;4956850;29;1150;-52
2022/10/29 12:34:49;;;;;;;;;;;;;;;16.98;49.50;101705.38;4953475;28;1399;-53
2022/10/29 12:37:24;;;;;;;;;;;;;;;16.88;48.29;101706.06;4956584;29;1181;-54
2022/10/29 12:39:54;;;;;;;;;;;;;;;17.55;49.51;101700.59;4957201;28;1902;-55
2022/10/29 12:42:26;;;;;;;;;;;;;;;17.10;49.60;101700.59;4988554;28;1204;-54
2022/10/29 12:45:04;;;;;;;;;;;;;;;16.88;48.76;101700.56;4952898;28;1647;-55
2022/10/29 12:47:32;;;;;;;;;;;;;;;17.39;49.59;101700.41;4956608;29;1204;-55
2022/10/29 12:49:57;;;;;;;;;;;;;;;16.99;49.14;101701.56;4977142;28;1121;-53
2022/10/29 12:52:33;;;;;;;;;;;;;;;16.82;48.58;101698.00;4938658;29;1173;-52